createdAt,value
2019-02-20T00:00:31.740Z,13.30
2019-02-20T00:03:03.338Z,10.93
2019-02-20T00:05:33.387Z,12.03
2019-02-20T00:08:03.362Z,12.53
2019-02-20T00:10:33.355Z,10.57
2019-02-20T00:13:03.325Z,9.97
2019-02-20T00:15:33.341Z,12.80
2019-02-20T00:18:03.278Z,10.27
2019-02-20T00:20:33.434Z,12.83
2019-02-20T00:23:03.837Z,12.50
2019-02-20T00:25:33.719Z,13.03
2019-02-20T00:28:03.682Z,9.70
2019-02-20T00:30:33.651Z,12.87
2019-02-20T00:33:04.145Z,12.23
2019-02-20T00:35:34.105Z,9.80
2019-02-20T00:38:04.260Z,14.60
2019-02-20T00:40:34.290Z,13.13
2019-02-20T00:43:04.310Z,11.13
2019-02-20T00:45:43.862Z,10.40
2019-02-20T00:48:23.838Z,11.30
2019-02-20T00:50:59.264Z,16.77
2019-02-20T00:53:33.516Z,11.83
2019-02-20T00:56:03.484Z,12.70
2019-02-20T00:58:33.441Z,13.53
2019-02-20T01:01:03.688Z,16.77
2019-02-20T01:03:33.656Z,13.90
2019-02-20T01:06:05.009Z,12.37
2019-02-20T01:08:35.105Z,13.73
2019-02-20T01:11:05.088Z,14.40
2019-02-20T01:13:35.093Z,15.17
2019-02-20T01:16:05.085Z,13.00
2019-02-20T01:18:35.042Z,13.27
2019-02-20T01:21:04.931Z,12.43
2019-02-20T01:23:34.881Z,12.77
2019-02-20T01:26:04.919Z,8.70
2019-02-20T01:28:36.879Z,12.50
2019-02-20T01:31:07.202Z,13.67
2019-02-20T01:33:37.178Z,15.13
2019-02-20T01:36:07.116Z,10.37
2019-02-20T01:38:37.068Z,13.67
2019-02-20T01:41:07.093Z,13.80
2019-02-20T01:43:37.386Z,14.10
2019-02-20T01:46:07.348Z,13.77
2019-02-20T01:48:37.956Z,13.43
2019-02-20T01:51:07.972Z,11.73
2019-02-20T01:53:37.998Z,12.40
2019-02-20T01:56:07.992Z,10.50
2019-02-20T01:58:37.889Z,11.13
2019-02-20T02:01:07.888Z,9.83
2019-02-20T02:03:39.164Z,11.87
2019-02-20T02:06:09.580Z,13.10
2019-02-20T02:08:39.542Z,12.57
2019-02-20T02:11:09.912Z,11.40
2019-02-20T02:13:40.192Z,12.93
2019-02-20T02:16:10.174Z,10.80
2019-02-20T02:18:40.499Z,12.63
2019-02-20T02:21:10.804Z,11.90
2019-02-20T02:23:42.159Z,11.37
2019-02-20T02:26:12.449Z,12.33
2019-02-20T02:28:42.431Z,9.53
2019-02-20T02:31:12.387Z,8.77
2019-02-20T02:33:42.650Z,12.40
2019-02-20T02:36:12.662Z,12.43
2019-02-20T02:38:42.598Z,13.27
2019-02-20T02:41:12.609Z,12.47
2019-02-20T02:43:42.521Z,8.67
2019-02-20T02:46:12.532Z,13.37
2019-02-20T02:48:42.725Z,11.23
2019-02-20T02:51:13.316Z,11.87
2019-02-20T02:53:43.312Z,14.53
2019-02-20T02:56:13.372Z,14.40
2019-02-20T02:58:43.323Z,10.30
2019-02-20T03:01:14.919Z,10.80
2019-02-20T03:03:44.942Z,7.60
2019-02-20T03:06:14.921Z,14.20
2019-02-20T03:08:44.836Z,10.50
2019-02-20T03:11:15.046Z,10.53
2019-02-20T03:13:44.975Z,11.27
2019-02-20T03:16:14.915Z,9.83
2019-02-20T03:18:45.242Z,12.03
2019-02-20T03:21:15.204Z,9.93
2019-02-20T03:23:46.539Z,9.57
2019-02-20T03:26:16.513Z,11.80
2019-02-20T03:28:46.390Z,14.57
2019-02-20T03:31:16.319Z,14.07
2019-02-20T03:33:46.308Z,12.07
2019-02-20T03:36:16.254Z,18.87
2019-02-20T03:38:46.214Z,9.67
2019-02-20T03:41:16.455Z,13.63
2019-02-20T03:43:46.406Z,12.73
2019-02-20T03:46:16.388Z,13.00
2019-02-20T03:48:47.041Z,12.33
2019-02-20T03:51:16.931Z,17.10
2019-02-20T03:53:51.496Z,12.60
2019-02-20T03:56:20.317Z,10.20
2019-02-20T03:58:50.969Z,10.77
2019-02-20T04:01:20.857Z,14.10
2019-02-20T04:03:50.800Z,13.17
2019-02-20T04:06:20.639Z,12.70
2019-02-20T04:08:50.655Z,13.27
2019-02-20T04:11:20.846Z,11.83
2019-02-20T04:13:50.733Z,12.10
2019-02-20T04:16:20.675Z,12.07
2019-02-20T04:18:50.649Z,10.73
2019-02-20T04:21:20.923Z,12.03
2019-02-20T04:23:50.826Z,12.43
2019-02-20T04:26:21.082Z,17.73
2019-02-20T04:28:51.305Z,14.13
2019-02-20T04:31:21.274Z,16.27
2019-02-20T04:33:51.245Z,17.07
2019-02-20T04:36:21.138Z,16.20
2019-02-20T04:38:51.353Z,13.07
2019-02-20T04:41:21.333Z,13.17
2019-02-20T04:43:51.337Z,13.90
2019-02-20T04:46:22.046Z,10.63
2019-02-20T04:48:52.008Z,10.40
2019-02-20T04:51:22.367Z,10.97
2019-02-20T04:53:53.823Z,9.70
2019-02-20T04:56:24.269Z,12.67
2019-02-20T04:58:59.595Z,8.77
2019-02-20T05:01:29.566Z,12.83
2019-02-20T05:03:59.548Z,12.07
2019-02-20T05:06:29.878Z,11.83
2019-02-20T05:08:59.886Z,13.07
2019-02-20T05:11:29.853Z,11.70
2019-02-20T05:13:59.870Z,18.63
2019-02-20T05:16:30.375Z,11.37
2019-02-20T05:19:00.731Z,13.60
2019-02-20T05:21:30.706Z,15.97
2019-02-20T05:24:00.704Z,18.53
2019-02-20T05:26:30.575Z,10.73
2019-02-20T05:29:01.291Z,8.63
2019-02-20T05:31:31.600Z,13.73
2019-02-20T05:34:01.548Z,9.73
2019-02-20T05:36:32.506Z,10.60
2019-02-20T05:39:03.716Z,8.57
2019-02-20T05:41:35.272Z,10.93
2019-02-20T05:44:05.785Z,16.27
2019-02-20T05:46:35.649Z,11.03
2019-02-20T05:49:05.629Z,14.83
2019-02-20T05:51:35.576Z,14.97
2019-02-20T05:54:06.951Z,10.37
2019-02-20T05:56:36.824Z,15.40
2019-02-20T05:59:07.179Z,12.87
2019-02-20T06:01:37.439Z,12.27
2019-02-20T06:04:07.661Z,15.23
2019-02-20T06:06:37.615Z,13.87
2019-02-20T06:09:07.485Z,11.37
2019-02-20T06:11:37.370Z,12.93
2019-02-20T06:14:07.302Z,10.63
2019-02-20T06:16:37.308Z,12.63
2019-02-20T06:19:07.447Z,11.50
2019-02-20T06:21:37.748Z,14.73
2019-02-20T06:24:07.631Z,12.77
2019-02-20T06:26:37.580Z,12.50
2019-02-20T06:29:07.450Z,13.57
2019-02-20T06:31:37.452Z,13.00
2019-02-20T06:34:07.324Z,12.33
2019-02-20T06:36:37.275Z,12.10
2019-02-20T06:39:07.216Z,14.73
2019-02-20T06:41:39.468Z,16.50
2019-02-20T06:44:09.187Z,17.83
2019-02-20T06:46:39.808Z,16.43
2019-02-20T06:49:09.759Z,12.00
2019-02-20T06:51:39.636Z,16.43
2019-02-20T06:54:09.594Z,17.17
2019-02-20T06:56:39.560Z,25.27
2019-02-20T06:59:10.186Z,25.20
2019-02-20T07:01:39.983Z,17.50
2019-02-20T07:04:09.948Z,14.87
2019-02-20T07:07:21.563Z,14.97
2019-02-20T07:10:30.960Z,16.17
2019-02-20T07:13:25.675Z,15.60
2019-02-20T07:16:41.022Z,18.13
2019-02-20T07:19:41.400Z,14.37
2019-02-20T07:22:49.476Z,12.83
2019-02-20T07:25:42.761Z,16.87
2019-02-20T07:28:46.168Z,17.40
2019-02-20T07:31:16.040Z,15.00
2019-02-20T07:33:45.993Z,16.40
2019-02-20T07:36:15.923Z,17.77
2019-02-20T07:38:45.924Z,16.17
2019-02-20T07:41:15.866Z,20.30
2019-02-20T07:43:45.829Z,15.90
2019-02-20T07:46:15.781Z,16.63
2019-02-20T07:48:46.017Z,18.47
2019-02-20T07:51:16.072Z,19.00
2019-02-20T07:53:45.903Z,18.03
2019-02-20T07:56:15.822Z,17.23
2019-02-20T07:58:45.709Z,13.20
2019-02-20T08:01:15.680Z,18.30
2019-02-20T08:03:45.839Z,21.33
2019-02-20T08:06:16.134Z,21.73
2019-02-20T08:08:46.080Z,16.70
2019-02-20T08:11:15.989Z,14.77
2019-02-20T08:13:45.807Z,16.20
2019-02-20T08:16:15.749Z,17.23
2019-02-20T08:18:45.711Z,18.87
2019-02-20T08:21:15.925Z,15.77
2019-02-20T08:23:46.171Z,14.37
2019-02-20T08:26:16.447Z,15.90
2019-02-20T08:28:46.396Z,14.20
2019-02-20T08:31:16.376Z,18.00
2019-02-20T08:33:46.589Z,20.10
2019-02-20T08:36:16.815Z,17.37
2019-02-20T08:38:46.706Z,13.63
2019-02-20T08:41:16.709Z,16.90
2019-02-20T08:43:46.896Z,17.47
2019-02-20T08:46:16.862Z,13.97
2019-02-20T08:48:47.125Z,23.97
2019-02-20T08:51:16.952Z,17.43
2019-02-20T08:53:47.296Z,17.53
2019-02-20T08:56:17.260Z,18.47
2019-02-20T08:58:47.545Z,19.13
2019-02-20T09:01:17.435Z,16.80
2019-02-20T09:03:47.387Z,23.37
2019-02-20T09:06:17.583Z,19.77
2019-02-20T09:08:47.531Z,18.20
2019-02-20T09:11:17.824Z,22.67
2019-02-20T09:13:47.859Z,24.10
2019-02-20T09:16:19.198Z,24.97
2019-02-20T09:18:49.161Z,28.10
2019-02-20T09:21:19.742Z,28.77
2019-02-20T09:23:49.745Z,25.57
2019-02-20T09:26:19.716Z,25.27
2019-02-20T09:28:49.753Z,24.37
2019-02-20T09:31:19.634Z,27.37
2019-02-20T09:33:49.505Z,26.83
2019-02-20T09:36:19.476Z,28.70
2019-02-20T09:38:49.428Z,27.30
2019-02-20T09:41:19.311Z,31.37
2019-02-20T09:43:49.500Z,29.20
2019-02-20T09:46:19.305Z,33.77
2019-02-20T09:48:49.227Z,36.57
2019-02-20T09:51:19.690Z,32.07
2019-02-20T09:53:49.681Z,30.60
2019-02-20T09:56:21.104Z,30.97
2019-02-20T09:58:50.911Z,31.50
2019-02-20T10:01:20.854Z,33.80
2019-02-20T10:03:50.801Z,29.83
2019-02-20T10:06:20.751Z,40.50
2019-02-20T10:08:51.044Z,32.20
2019-02-20T10:11:20.988Z,31.47
2019-02-20T10:13:50.880Z,32.57
2019-02-20T10:16:20.863Z,38.33
2019-02-20T10:18:51.138Z,37.17
2019-02-20T10:21:21.109Z,33.07
2019-02-20T10:23:51.814Z,38.60
2019-02-20T10:26:22.018Z,37.07
2019-02-20T10:28:53.972Z,37.53
2019-02-20T10:31:24.001Z,36.40
2019-02-20T10:33:54.260Z,34.80
2019-02-20T10:36:24.215Z,38.87
2019-02-20T10:38:54.191Z,36.00
2019-02-20T10:41:24.569Z,37.60
2019-02-20T10:43:54.874Z,36.97
2019-02-20T10:46:24.814Z,34.47
2019-02-20T10:48:55.146Z,31.47
2019-02-20T10:51:25.141Z,39.17
2019-02-20T10:53:55.059Z,31.83
2019-02-20T10:56:25.026Z,32.80
2019-02-20T10:58:54.902Z,32.33
2019-02-20T11:01:25.988Z,32.10
2019-02-20T11:03:56.262Z,29.10
2019-02-20T11:06:26.232Z,30.93
2019-02-20T11:08:56.498Z,33.17
2019-02-20T11:11:26.391Z,28.50
2019-02-20T11:13:56.264Z,32.20
2019-02-20T11:16:26.240Z,22.87
2019-02-20T11:18:56.123Z,16.40
2019-02-20T11:21:26.088Z,13.00
2019-02-20T11:23:56.132Z,15.87
2019-02-20T11:26:27.112Z,17.50
2019-02-20T11:28:57.060Z,14.83
2019-02-20T11:31:26.957Z,11.93
2019-02-20T11:33:56.901Z,12.73
2019-02-20T11:36:27.477Z,15.07
2019-02-20T11:38:57.739Z,12.37
2019-02-20T11:41:27.936Z,12.57
2019-02-20T11:43:57.810Z,11.20
2019-02-20T11:46:28.410Z,11.80
2019-02-20T11:48:58.684Z,13.70
2019-02-20T11:51:28.647Z,13.20
2019-02-20T11:53:58.617Z,13.93
2019-02-20T11:56:28.497Z,15.27
2019-02-20T11:58:58.480Z,13.57
2019-02-20T12:01:28.420Z,8.87
2019-02-20T12:03:58.477Z,9.50
2019-02-20T12:06:28.422Z,12.80
2019-02-20T12:08:58.427Z,13.93
2019-02-20T12:11:28.738Z,12.00
2019-02-20T12:13:58.567Z,13.83
2019-02-20T12:16:28.508Z,11.37
2019-02-20T12:18:58.467Z,9.93
2019-02-20T12:21:28.635Z,14.83
2019-02-20T12:23:58.621Z,11.10
2019-02-20T12:26:34.860Z,8.93
2019-02-20T12:29:00.526Z,8.27
2019-02-20T12:31:30.398Z,8.10
2019-02-20T12:34:01.616Z,8.33
2019-02-20T12:36:31.921Z,11.27
2019-02-20T12:39:01.806Z,7.50
2019-02-20T12:41:33.730Z,8.60
2019-02-20T12:44:04.917Z,10.67
2019-02-20T12:46:34.744Z,10.07
2019-02-20T12:49:04.730Z,11.83
2019-02-20T12:51:34.688Z,9.30
2019-02-20T12:54:05.641Z,10.83
2019-02-20T12:56:43.478Z,16.77
2019-02-20T12:59:07.968Z,14.77
2019-02-20T13:01:39.460Z,14.23
2019-02-20T13:04:09.635Z,13.20
2019-02-20T13:06:40.089Z,14.30
2019-02-20T13:09:13.318Z,15.43
2019-02-20T13:11:43.354Z,13.27
2019-02-20T13:14:13.288Z,8.83
2019-02-20T13:16:43.250Z,11.17
2019-02-20T13:19:13.456Z,9.77
2019-02-20T13:21:43.651Z,8.13
2019-02-20T13:24:13.608Z,10.30
2019-02-20T13:26:43.613Z,11.37
2019-02-20T13:29:13.588Z,13.07
2019-02-20T13:31:43.585Z,12.73
2019-02-20T13:34:13.599Z,9.50
2019-02-20T13:36:43.649Z,15.00
2019-02-20T13:39:13.947Z,10.20
2019-02-20T13:41:44.500Z,9.53
2019-02-20T13:44:14.442Z,11.60
2019-02-20T13:46:44.345Z,8.57
2019-02-20T13:49:14.931Z,8.30
2019-02-20T13:51:44.915Z,8.87
2019-02-20T13:54:15.230Z,10.07
2019-02-20T13:56:46.294Z,9.60
2019-02-20T13:59:16.251Z,10.87
2019-02-20T14:01:46.126Z,8.77
2019-02-20T14:04:16.787Z,9.40
2019-02-20T14:06:47.117Z,10.43
2019-02-20T14:09:17.073Z,9.33
2019-02-20T14:11:47.031Z,7.67
2019-02-20T14:14:16.942Z,10.33
2019-02-20T14:16:47.294Z,7.83
2019-02-20T14:19:18.656Z,9.27
2019-02-20T14:21:48.569Z,8.20
2019-02-20T14:24:20.764Z,7.87
2019-02-20T14:26:51.027Z,8.67
2019-02-20T14:29:21.014Z,10.43
2019-02-20T14:31:51.049Z,11.03
2019-02-20T14:34:22.153Z,10.07
2019-02-20T14:36:52.444Z,9.13
2019-02-20T14:39:22.442Z,8.90
2019-02-20T14:41:52.415Z,9.23
2019-02-20T14:44:22.391Z,10.10
2019-02-20T14:46:53.039Z,12.53
2019-02-20T14:49:23.262Z,6.30
2019-02-20T14:51:53.210Z,10.43
2019-02-20T14:54:23.191Z,10.63
2019-02-20T14:56:54.028Z,9.13
2019-02-20T14:59:24.032Z,9.00
2019-02-20T15:01:54.371Z,10.40
2019-02-20T15:04:24.191Z,11.80
2019-02-20T15:06:54.403Z,11.77
2019-02-20T15:09:24.812Z,8.10
2019-02-20T15:11:55.058Z,9.70
2019-02-20T15:14:25.124Z,10.00
2019-02-20T15:16:55.288Z,13.77
2019-02-20T15:19:25.213Z,10.67
2019-02-20T15:21:56.354Z,12.27
2019-02-20T15:24:26.308Z,10.00
2019-02-20T15:26:56.190Z,11.63
2019-02-20T15:29:26.176Z,12.97
2019-02-20T15:31:56.091Z,13.53
2019-02-20T15:34:26.040Z,12.77
2019-02-20T15:36:56.024Z,11.70
2019-02-20T15:39:26.268Z,13.20
2019-02-20T15:41:56.222Z,11.13
2019-02-20T15:44:26.705Z,10.40
2019-02-20T15:46:56.588Z,10.47
2019-02-20T15:49:27.258Z,11.83
2019-02-20T15:51:58.209Z,12.30
2019-02-20T15:54:28.220Z,13.50
2019-02-20T15:56:58.205Z,12.33
2019-02-20T15:59:28.777Z,12.20
2019-02-20T16:01:59.108Z,12.53
2019-02-20T16:04:29.371Z,13.83
2019-02-20T16:06:59.307Z,14.13
2019-02-20T16:09:29.545Z,12.00
2019-02-20T16:11:59.454Z,11.53
2019-02-20T16:14:29.635Z,11.97
2019-02-20T16:16:59.527Z,11.93
2019-02-20T16:19:29.474Z,12.90
2019-02-20T16:21:59.368Z,15.93
2019-02-20T16:24:29.641Z,16.03
2019-02-20T16:26:59.530Z,11.03
2019-02-20T16:29:29.826Z,10.80
2019-02-20T16:32:00.186Z,11.80
2019-02-20T16:34:30.528Z,12.13
2019-02-20T16:37:00.805Z,14.00
2019-02-20T16:39:30.774Z,13.13
2019-02-20T16:42:00.777Z,12.90
2019-02-20T16:44:30.934Z,13.57
2019-02-20T16:47:00.923Z,14.23
2019-02-20T16:49:31.142Z,11.17
2019-02-20T16:52:01.108Z,13.57
2019-02-20T16:54:31.593Z,16.00
2019-02-20T16:57:02.214Z,11.83
2019-02-20T16:59:32.451Z,11.23
2019-02-20T17:02:02.412Z,15.67
2019-02-20T17:04:32.409Z,13.83
2019-02-20T17:07:02.288Z,13.23
2019-02-20T17:09:32.253Z,10.27
2019-02-20T17:12:02.521Z,10.77
2019-02-20T17:14:32.478Z,12.20
2019-02-20T17:17:02.650Z,14.60
2019-02-20T17:19:32.624Z,11.87
2019-02-20T17:22:02.507Z,10.73
2019-02-20T17:24:33.424Z,12.90
2019-02-20T17:27:05.136Z,9.93
2019-02-20T17:29:35.001Z,17.70
2019-02-20T17:32:04.990Z,13.47
2019-02-20T17:34:35.236Z,13.30
2019-02-20T17:37:05.500Z,11.63
2019-02-20T17:39:35.776Z,13.20
2019-02-20T17:42:06.308Z,12.57
2019-02-20T17:44:37.260Z,13.70
2019-02-20T17:47:07.205Z,13.13
2019-02-20T17:49:37.202Z,15.20
2019-02-20T17:52:07.451Z,12.90
2019-02-20T17:54:37.618Z,10.73
2019-02-20T17:57:07.838Z,9.73
2019-02-20T17:59:38.152Z,11.33
2019-02-20T18:02:08.123Z,13.40
2019-02-20T18:04:38.366Z,10.37
2019-02-20T18:07:08.302Z,13.60
2019-02-20T18:09:38.585Z,10.87
2019-02-20T18:12:08.808Z,13.37
2019-02-20T18:14:38.710Z,14.30
2019-02-20T18:17:08.996Z,11.93
2019-02-20T18:19:39.498Z,11.03
2019-02-20T18:22:09.366Z,11.40
2019-02-20T18:24:39.317Z,11.83
2019-02-20T18:27:09.259Z,11.60
2019-02-20T18:29:39.721Z,12.57
2019-02-20T18:32:09.918Z,12.77
2019-02-20T18:34:40.139Z,12.77
2019-02-20T18:37:10.031Z,14.30
2019-02-20T18:39:40.010Z,13.30
2019-02-20T18:42:09.959Z,15.07
2019-02-20T18:44:39.854Z,13.83
2019-02-20T18:47:09.821Z,13.07
2019-02-20T18:49:39.692Z,13.17
2019-02-20T18:52:09.901Z,14.43
2019-02-20T18:54:40.538Z,11.57
2019-02-20T18:57:11.543Z,16.17
2019-02-20T18:59:41.514Z,12.17
2019-02-20T19:02:11.458Z,12.50
2019-02-20T19:04:41.773Z,12.37
2019-02-20T19:07:13.510Z,16.90
2019-02-20T19:09:46.458Z,13.47
2019-02-20T19:12:50.368Z,14.33
2019-02-20T19:15:34.789Z,16.27
2019-02-20T19:18:46.848Z,12.07
2019-02-20T19:21:42.009Z,14.90
2019-02-20T19:24:37.106Z,15.37
2019-02-20T19:27:41.174Z,15.77
2019-02-20T19:31:09.122Z,15.73
2019-02-20T19:33:51.760Z,16.67
2019-02-20T19:37:01.608Z,14.90
2019-02-20T19:40:02.004Z,15.00
2019-02-20T19:42:50.042Z,20.07
2019-02-20T19:45:36.833Z,15.70
2019-02-20T19:48:43.147Z,16.90
2019-02-20T19:51:42.927Z,13.30
2019-02-20T19:54:23.203Z,15.53
2019-02-20T19:57:25.211Z,13.90
2019-02-20T20:01:03.688Z,13.33
2019-02-20T20:03:50.267Z,14.00
2019-02-20T20:06:56.637Z,15.40
2019-02-20T20:09:41.836Z,16.10
2019-02-20T20:12:49.113Z,13.90
2019-02-20T20:15:58.326Z,13.20
2019-02-20T20:19:13.594Z,16.23
2019-02-20T20:22:20.345Z,14.00
2019-02-20T20:25:20.533Z,15.87
2019-02-20T20:28:05.195Z,17.27
2019-02-20T20:31:25.241Z,15.10
2019-02-20T20:34:21.592Z,14.03
2019-02-20T20:37:36.152Z,12.80
2019-02-20T20:40:35.453Z,15.03
2019-02-20T20:43:40.169Z,15.37
2019-02-20T20:46:30.108Z,15.23
2019-02-20T20:49:50.599Z,16.77
2019-02-20T20:52:35.934Z,13.87
2019-02-20T20:55:23.795Z,16.53
2019-02-20T20:58:33.565Z,17.33
2019-02-20T21:01:42.424Z,15.90
2019-02-20T21:04:55.161Z,17.87
2019-02-20T21:07:53.281Z,19.33
2019-02-20T21:10:55.411Z,13.50
2019-02-20T21:14:09.579Z,15.27
2019-02-20T21:17:08.944Z,16.53
2019-02-20T21:20:19.560Z,16.97
2019-02-20T21:23:22.071Z,14.17
2019-02-20T21:26:34.349Z,17.03
2019-02-20T21:29:36.283Z,15.83
2019-02-20T21:32:40.633Z,17.40
2019-02-20T21:35:36.034Z,15.67
2019-02-20T21:38:48.561Z,14.50
2019-02-20T21:41:38.892Z,14.20
2019-02-20T21:44:34.061Z,15.33
2019-02-20T21:47:38.789Z,15.57
2019-02-20T21:50:38.328Z,16.77
2019-02-20T21:53:45.807Z,12.27
2019-02-20T21:56:37.207Z,15.03
2019-02-20T21:59:48.911Z,12.83
2019-02-20T22:02:44.554Z,14.23
2019-02-20T22:05:42.516Z,12.80
2019-02-20T22:09:01.720Z,13.20
2019-02-20T22:11:58.281Z,12.63
2019-02-20T22:14:49.113Z,16.73
2019-02-20T22:17:41.012Z,12.77
2019-02-20T22:20:50.693Z,14.37
2019-02-20T22:23:45.176Z,15.67
2019-02-20T22:26:33.820Z,15.10
2019-02-20T22:29:49.856Z,12.60
2019-02-20T22:32:59.960Z,17.23
2019-02-20T22:36:04.716Z,16.00
2019-02-20T22:39:27.533Z,14.63
2019-02-20T22:42:29.556Z,15.57
2019-02-20T22:45:47.651Z,16.77
2019-02-20T22:48:52.961Z,20.43
2019-02-20T22:51:55.125Z,18.37
2019-02-20T22:54:56.973Z,14.40
2019-02-20T22:58:17.142Z,14.93
2019-02-20T23:01:24.233Z,13.23
2019-02-20T23:04:04.293Z,14.80
2019-02-20T23:06:54.804Z,13.03
2019-02-20T23:09:37.182Z,14.60
2019-02-20T23:12:20.191Z,17.17
2019-02-20T23:14:57.406Z,12.10
2019-02-20T23:17:27.614Z,14.63
2019-02-20T23:19:57.720Z,12.20
2019-02-20T23:22:27.665Z,13.80
2019-02-20T23:24:57.871Z,13.27
2019-02-20T23:27:27.803Z,13.50
2019-02-20T23:29:58.043Z,13.50
2019-02-20T23:32:28.619Z,13.73
2019-02-20T23:34:59.401Z,12.70
2019-02-20T23:37:29.283Z,15.93
2019-02-20T23:39:59.084Z,12.93
2019-02-20T23:42:29.038Z,12.23
2019-02-20T23:44:58.909Z,14.07
2019-02-20T23:47:28.784Z,12.07
2019-02-20T23:49:58.660Z,13.37
2019-02-20T23:52:28.609Z,17.47
2019-02-20T23:54:58.488Z,12.63
2019-02-20T23:57:28.724Z,12.50
2019-02-20T23:59:58.596Z,15.63
